Brandon, North Carolina
Current Conditions -  °F | °C
As of 8:55 PM on Monday 20 Oct 2014 (Local Time) from KGEV Reporting Station
Broken Clouds Broken Clouds  
Wind Chill: 54°   Ceiling: 7500
Heat Index: 54°   Visibility: 10mi
Dew Point: 44°   Wind: 0mph
Humidity: 69%   Direction: NA
Pressure: 30.01"   Gusts: NA
Location:  36.524°N, 81.538°W
Report Text: KGEV 210055Z AUTO 00000KT 10SM BKN075 BKN100 12/07 A3001 RMK AO2 T01220067
Loading
Personal Weather Stations






























Interactive Weather Map
Tropical Storm Tracking
New forecast layout! Learn more

10-Day Weather Forecast

Advertisements
Track Severe Weather on mobile